首页
METAR-TAF:

METAR-TAF

机场 :

亨茨维尔, 阿拉巴马州, 美国

纬度: 34-38-37N, 经度: 086-47-08W, 海拔: 192米

当前天气观测

该预报发布于9分钟前的10:53 UTC
风速9节,风向东转东南
温度 22°C
湿度 83%
气压 1016 hPa
能見度: 16.1公里
少量云层高于2000英尺
多云层高于15000英尺
多云层高于18000英尺

METAR: KHSV 261053Z 11009KT 10SM FEW020 BKN150 BKN180 22/19 A3001 RMK AO2 SLP153 T02170189

时间: 06:02 (11:02 UTC)

预报

该预报发布于1小时和52分钟前的09:10 UTC
预报有效从26日的 09点(UTC)到 27日的 06点(UTC)
风速7节,风向东南
能見度: 10公里
散云层高于1500英尺
阴天层高于15000英尺
从 26日的 1700点(UTC)
风速10节,风向东南
能見度: 10公里
散云层高于3500英尺
阴天层高于15000英尺
几率 30%
从 26日的 18点(UTC)到 26日的 24点(UTC)
能見度: 8.0公里
多云层高于2500英尺, 积雨云.
雷暴, 雨, 轻雾
从 27日的 0300点(UTC)
风速10节,风向东南
能見度: 10公里
少量云层高于3500英尺
阴天层高于8000英尺

TAF: KHSV 260910Z 2609/2706 13007KT P6SM SCT015 OVC150 FM261700 13010KT P6SM SCT035 OVC150 PROB30 2618/2624 5SM TSRA BR BKN025CB FM270300 13010KT P6SM FEW035 OVC080

超过4000个机场的气象观测和天气预报(METAR&TAF报告)。

可查询的气象台以黄色和红色小点在地图上表示。

将鼠标移到小点上方,可查看气象台名称。

然后点击查看天气观测和预报。

如需切换地图:点击带黑十字的绿色按钮放大地图;点击带横线的绿色按钮缩小地图;或者点击绿色箭头查看邻近地区的地图。


METAR-TAF: